Time;durP1;ratioP1;P1;durP2;ratioP2;P2;SDS_P1;SDS_P2;PMS_P1;PMS_P2;Temp;Humidity;BMP_temperature;BMP_pressure;BME280_temperature;BME280_humidity;BME280_pressure;Samples;Min_cycle;Max_cycle;Signal;HPM_P1;HPM_P2
2021/10/12 00:01:30;;;;;;;12.70;3.00;;;8.10;99.90;;;;;;4193119;28;20524;-78
2021/10/12 00:03:31;;;;;;;9.60;3.20;;;8.10;99.90;;;;;;4204848;28;20477;-78
2021/10/12 00:05:33;;;;;;;10.00;3.10;;;8.10;99.90;;;;;;4229067;22;20503;-78
2021/10/12 00:07:35;;;;;;;6.83;3.20;;;8.10;99.90;;;;;;4201492;28;20468;-80
2021/10/12 00:09:37;;;;;;;9.60;3.17;;;8.00;99.90;;;;;;4196868;28;20448;-78
2021/10/12 00:11:38;;;;;;;5.37;2.60;;;8.00;99.90;;;;;;4195376;28;20463;-78
2021/10/12 00:13:42;;;;;;;7.60;3.20;;;8.00;99.90;;;;;;4201112;28;20519;-78
2021/10/12 00:15:44;;;;;;;7.53;3.00;;;8.00;99.90;;;;;;4196586;28;20549;-78
2021/10/12 00:17:45;;;;;;;6.97;3.20;;;7.90;99.90;;;;;;4206761;28;20844;-78
2021/10/12 00:19:47;;;;;;;7.60;3.00;;;7.90;99.90;;;;;;4213093;28;20488;-78
2021/10/12 00:21:49;;;;;;;14.33;2.97;;;7.90;99.90;;;;;;4209950;28;20538;-78
2021/10/12 00:23:50;;;;;;;7.93;3.43;;;7.90;99.90;;;;;;4208292;28;20518;-79
2021/10/12 00:25:52;;;;;;;10.13;3.50;;;7.90;99.90;;;;;;4219976;28;20862;-78
2021/10/12 00:27:54;;;;;;;5.77;2.67;;;7.90;99.90;;;;;;4223523;28;20454;-78
2021/10/12 00:29:57;;;;;;;5.97;3.13;;;7.80;99.90;;;;;;4219366;28;20500;-78
2021/10/12 00:31:59;;;;;;;4.67;2.70;;;7.80;99.90;;;;;;4221608;28;20526;-78
2021/10/12 00:34:00;;;;;;;6.33;2.50;;;7.80;99.90;;;;;;4209167;28;20483;-78
2021/10/12 00:36:02;;;;;;;7.27;3.20;;;7.80;99.90;;;;;;4194414;28;20532;-77
2021/10/12 00:38:04;;;;;;;7.07;2.77;;;7.80;99.90;;;;;;4202436;28;21039;-78
2021/10/12 00:40:07;;;;;;;6.70;3.10;;;7.80;99.90;;;;;;4215444;28;20510;-77
2021/10/12 00:42:09;;;;;;;8.53;3.03;;;7.70;99.90;;;;;;4223247;28;20537;-77
2021/10/12 00:44:10;;;;;;;6.53;2.90;;;7.70;99.90;;;;;;4209029;28;20981;-79
2021/10/12 00:46:13;;;;;;;6.10;2.50;;;7.70;99.90;;;;;;4210390;28;20937;-78
2021/10/12 00:48:15;;;;;;;5.27;2.90;;;7.70;99.90;;;;;;4220599;28;20482;-80
2021/10/12 00:50:17;;;;;;;4.97;2.80;;;7.70;99.90;;;;;;4198963;28;20444;-79
2021/10/12 00:52:19;;;;;;;16.97;4.70;;;7.70;99.90;;;;;;4208456;28;20520;-78
2021/10/12 00:54:21;;;;;;;13.47;5.10;;;7.70;99.90;;;;;;4223515;28;20464;-77
2021/10/12 00:56:23;;;;;;;8.63;4.50;;;7.60;99.90;;;;;;4220939;28;20457;-78
2021/10/12 00:58:25;;;;;;;7.77;3.50;;;7.60;99.90;;;;;;4212698;28;20475;-78
2021/10/12 01:00:27;;;;;;;6.77;3.40;;;7.60;99.90;;;;;;4222812;28;20483;-78
2021/10/12 01:02:35;;;;;;;6.53;3.10;;;7.60;99.90;;;;;;4212167;28;21009;-77
2021/10/12 01:04:36;;;;;;;9.30;2.77;;;7.60;99.90;;;;;;4214032;28;20448;-77
2021/10/12 01:06:38;;;;;;;5.07;2.43;;;7.60;99.90;;;;;;4211184;28;20523;-77
2021/10/12 01:08:40;;;;;;;4.13;2.83;;;7.60;99.90;;;;;;4216261;28;20462;-78
2021/10/12 01:10:42;;;;;;;6.57;2.50;;;7.60;99.90;;;;;;4217527;28;20815;-77
2021/10/12 01:12:44;;;;;;;7.07;2.60;;;7.60;99.90;;;;;;4229298;28;20453;-78
2021/10/12 01:14:46;;;;;;;7.33;2.70;;;7.60;99.90;;;;;;4202142;28;20494;-79
2021/10/12 01:16:48;;;;;;;8.00;2.90;;;7.60;99.90;;;;;;4218583;28;20469;-78
2021/10/12 01:18:58;;;;;;;7.97;2.80;;;7.60;99.90;;;;;;4215513;28;20510;-77
2021/10/12 01:21:01;;;;;;;6.73;3.00;;;7.60;99.90;;;;;;4214952;28;20534;-78
2021/10/12 01:23:03;;;;;;;7.03;3.03;;;7.60;99.90;;;;;;4204996;28;20508;-78
2021/10/12 01:25:05;;;;;;;4.73;2.83;;;7.50;99.90;;;;;;4214732;28;20557;-78
2021/10/12 01:27:07;;;;;;;5.27;2.80;;;7.50;99.90;;;;;;4220142;28;20473;-78
2021/10/12 01:29:10;;;;;;;8.43;2.90;;;7.50;99.90;;;;;;4218226;28;20515;-77
2021/10/12 01:31:18;;;;;;;5.93;2.73;;;7.50;99.90;;;;;;4212529;28;20845;-79
2021/10/12 01:33:20;;;;;;;5.07;2.60;;;7.50;99.90;;;;;;4212237;28;20459;-79
2021/10/12 01:35:21;;;;;;;5.67;2.47;;;7.50;99.90;;;;;;4228548;28;20479;-77
2021/10/12 01:37:24;;;;;;;4.73;2.97;;;7.40;99.90;;;;;;4230550;28;20517;-79
2021/10/12 01:39:28;;;;;;;5.87;2.50;;;7.50;99.90;;;;;;4214669;28;20454;-78
2021/10/12 01:41:29;;;;;;;6.33;2.77;;;7.40;99.90;;;;;;4211045;28;20468;-79
2021/10/12 01:43:31;;;;;;;4.77;2.60;;;7.40;99.90;;;;;;4215429;28;20458;-77
2021/10/12 01:45:33;;;;;;;4.13;2.57;;;7.40;99.90;;;;;;4223984;28;20541;-78
2021/10/12 01:47:35;;;;;;;6.47;3.03;;;7.40;99.90;;;;;;4227736;28;20908;-79
2021/10/12 01:49:36;;;;;;;4.87;2.83;;;7.30;99.90;;;;;;4198518;28;20475;-78
2021/10/12 01:51:38;;;;;;;5.23;2.63;;;7.30;99.90;;;;;;4197487;28;20506;-78
2021/10/12 01:53:41;;;;;;;4.00;2.50;;;7.30;99.90;;;;;;4208548;28;20829;-78
2021/10/12 01:55:43;;;;;;;6.10;2.50;;;7.30;99.90;;;;;;4218609;28;20494;-78
2021/10/12 01:57:45;;;;;;;6.10;2.60;;;7.30;99.90;;;;;;4220992;28;20473;-78
2021/10/12 01:59:47;;;;;;;6.67;2.43;;;7.30;99.90;;;;;;4225780;28;20518;-79
2021/10/12 02:01:49;;;;;;;4.97;2.17;;;7.30;99.90;;;;;;4220997;28;20464;-77
2021/10/12 02:03:52;;;;;;;4.63;2.37;;;7.30;99.90;;;;;;4218480;28;20458;-77
2021/10/12 02:05:53;;;;;;;4.80;2.40;;;7.30;99.90;;;;;;4213001;28;20492;-77
2021/10/12 02:07:55;;;;;;;3.40;2.10;;;7.40;99.90;;;;;;4218838;28;20475;-77
2021/10/12 02:09:59;;;;;;;6.07;2.60;;;7.40;99.90;;;;;;4222009;28;20457;-77
2021/10/12 02:12:01;;;;;;;4.57;2.47;;;7.30;99.90;;;;;;4214298;28;20482;-77
2021/10/12 02:14:03;;;;;;;5.63;2.20;;;7.30;99.90;;;;;;4208189;28;20530;-77
2021/10/12 02:16:05;;;;;;;6.50;2.00;;;7.30;99.90;;;;;;4215114;28;20469;-78
2021/10/12 02:18:06;;;;;;;6.13;2.00;;;7.30;99.90;;;;;;4219050;28;21023;-78
2021/10/12 02:20:10;;;;;;;5.10;2.23;;;7.30;99.90;;;;;;4216015;28;20496;-79
2021/10/12 02:22:12;;;;;;;4.93;2.03;;;7.20;99.90;;;;;;4220178;28;20625;-77
2021/10/12 02:24:13;;;;;;;4.20;2.60;;;7.20;99.90;;;;;;4215200;28;20567;-77
2021/10/12 02:26:16;;;;;;;4.83;2.37;;;7.10;99.90;;;;;;4213688;28;20507;-78
2021/10/12 02:28:18;;;;;;;6.27;3.00;;;7.10;99.90;;;;;;4215940;28;20491;-77
2021/10/12 02:30:20;;;;;;;4.03;2.37;;;7.10;99.90;;;;;;4209545;28;20454;-77
2021/10/12 02:32:22;;;;;;;5.80;2.70;;;7.10;99.90;;;;;;4203280;28;20511;-78
2021/10/12 02:34:26;;;;;;;6.33;3.33;;;7.10;99.90;;;;;;4213609;28;20467;-77
2021/10/12 02:36:30;;;;;;;6.90;3.30;;;7.10;99.90;;;;;;4227715;28;20965;-77
2021/10/12 02:38:31;;;;;;;5.33;3.20;;;7.00;99.90;;;;;;4230487;28;20465;-77
2021/10/12 02:40:33;;;;;;;9.73;3.57;;;7.00;99.90;;;;;;4212104;28;20484;-78
2021/10/12 02:42:36;;;;;;;6.60;3.20;;;7.00;99.90;;;;;;4214045;28;20520;-79
2021/10/12 02:44:38;;;;;;;9.10;3.83;;;6.90;99.90;;;;;;4213757;28;20482;-78
2021/10/12 02:46:39;;;;;;;6.80;3.97;;;6.90;99.90;;;;;;4214668;28;20456;-78
2021/10/12 02:48:41;;;;;;;9.00;3.67;;;6.90;99.90;;;;;;4204810;28;20477;-79
2021/10/12 02:50:43;;;;;;;8.13;4.00;;;6.90;99.90;;;;;;4210665;28;20827;-77
2021/10/12 02:52:45;;;;;;;10.57;3.90;;;6.90;99.90;;;;;;4217972;28;20503;-79
2021/10/12 02:54:47;;;;;;;9.03;4.50;;;6.90;99.90;;;;;;4224203;28;20529;-77
2021/10/12 02:56:49;;;;;;;8.00;4.33;;;6.80;99.90;;;;;;4221785;28;20860;-77
2021/10/12 02:58:52;;;;;;;10.27;3.90;;;6.90;99.90;;;;;;4211066;28;20900;-77
2021/10/12 03:00:53;;;;;;;7.97;4.10;;;6.80;99.90;;;;;;4213627;28;20483;-78
2021/10/12 03:02:55;;;;;;;8.03;4.60;;;6.80;99.90;;;;;;4213432;28;20843;-78
2021/10/12 03:04:57;;;;;;;10.20;4.40;;;6.80;99.90;;;;;;4213932;28;20534;-78
2021/10/12 03:06:58;;;;;;;7.47;3.90;;;6.80;99.90;;;;;;4213097;28;20546;-78
2021/10/12 03:09:00;;;;;;;9.57;4.03;;;6.80;99.90;;;;;;4212915;28;20463;-78
2021/10/12 03:11:02;;;;;;;11.00;4.43;;;6.80;99.90;;;;;;4212092;28;20452;-77
2021/10/12 03:13:03;;;;;;;8.10;4.40;;;6.70;99.90;;;;;;4213242;28;20461;-77
2021/10/12 03:15:08;;;;;;;10.33;5.43;;;6.80;99.90;;;;;;4219898;28;20895;-78
2021/10/12 03:17:10;;;;;;;8.67;4.80;;;6.80;99.90;;;;;;4231195;28;20481;-77
2021/10/12 03:19:12;;;;;;;7.13;4.43;;;6.70;99.90;;;;;;4216572;28;20460;-78
2021/10/12 03:21:15;;;;;;;8.60;4.20;;;6.70;99.90;;;;;;4212716;28;20492;-79
2021/10/12 03:23:16;;;;;;;7.87;4.37;;;6.70;99.90;;;;;;4205840;28;20534;-78
2021/10/12 03:25:18;;;;;;;6.63;4.00;;;6.70;99.90;;;;;;4212723;28;20486;-79
2021/10/12 03:27:20;;;;;;;7.50;4.33;;;6.70;99.90;;;;;;4215928;28;20958;-77
2021/10/12 03:29:21;;;;;;;5.53;3.87;;;6.70;99.90;;;;;;4213266;28;20452;-77
2021/10/12 03:31:24;;;;;;;8.70;4.03;;;6.70;99.90;;;;;;4211998;28;20443;-78
2021/10/12 03:33:26;;;;;;;7.50;4.43;;;6.60;99.90;;;;;;4208065;28;20868;-77
2021/10/12 03:35:31;;;;;;;8.03;4.33;;;6.60;99.90;;;;;;4214281;28;20540;-78
2021/10/12 03:37:33;;;;;;;6.33;3.47;;;6.60;99.90;;;;;;4220667;28;20466;-78
2021/10/12 03:39:35;;;;;;;7.27;4.43;;;6.60;99.90;;;;;;4213542;28;20537;-78
2021/10/12 03:41:37;;;;;;;8.97;3.90;;;6.60;99.90;;;;;;4201643;28;20550;-79
2021/10/12 03:43:38;;;;;;;10.23;4.03;;;6.60;99.90;;;;;;4197290;28;20505;-78
2021/10/12 03:45:40;;;;;;;9.43;4.10;;;6.60;99.90;;;;;;4222501;28;21025;-78
2021/10/12 03:47:43;;;;;;;10.67;4.53;;;6.60;99.90;;;;;;4216045;28;20956;-78
2021/10/12 03:49:45;;;;;;;9.67;4.60;;;6.60;99.90;;;;;;4210912;28;20474;-78
2021/10/12 03:51:46;;;;;;;10.37;5.00;;;6.60;99.90;;;;;;4211589;28;20450;-79
2021/10/12 03:53:48;;;;;;;6.77;4.23;;;6.60;99.90;;;;;;4216998;28;20442;-78
2021/10/12 03:55:50;;;;;;;8.13;4.50;;;6.60;99.90;;;;;;4217969;28;20479;-78
2021/10/12 03:57:52;;;;;;;11.13;5.20;;;6.60;99.90;;;;;;4216705;28;20528;-77
2021/10/12 03:59:53;;;;;;;9.53;4.47;;;6.70;99.90;;;;;;4219480;28;20463;-78
2021/10/12 04:01:55;;;;;;;12.73;5.30;;;6.60;99.90;;;;;;4215137;28;20857;-78
2021/10/12 04:03:59;;;;;;;11.97;5.60;;;6.90;99.90;;;;;;4213650;28;21014;-77
2021/10/12 04:06:00;;;;;;;13.87;5.23;;;6.60;99.90;;;;;;4210768;28;20567;-78
2021/10/12 04:08:02;;;;;;;14.73;5.77;;;6.70;99.90;;;;;;4214373;28;20455;-78
2021/10/12 04:10:05;;;;;;;11.23;5.37;;;6.70;99.90;;;;;;4212872;28;20456;-78
2021/10/12 04:12:07;;;;;;;10.33;4.83;;;6.70;99.90;;;;;;4211613;28;20452;-77
2021/10/12 04:14:09;;;;;;;13.07;5.50;;;6.70;99.90;;;;;;4212700;28;20841;-78
2021/10/12 04:16:11;;;;;;;13.20;5.93;;;6.70;99.90;;;;;;4210882;28;20491;-78
2021/10/12 04:18:12;;;;;;;13.87;5.30;;;6.60;99.90;;;;;;4208947;28;20456;-77
2021/10/12 04:20:15;;;;;;;13.13;5.33;;;6.60;99.90;;;;;;4209046;28;20525;-78
2021/10/12 04:22:17;;;;;;;10.33;5.13;;;6.70;99.90;;;;;;4212472;28;20502;-78
2021/10/12 04:24:19;;;;;;;10.73;5.60;;;6.70;99.90;;;;;;4210680;28;20869;-77
2021/10/12 04:26:23;;;;;;;12.43;6.13;;;6.60;99.90;;;;;;4211899;28;20871;-77
2021/10/12 04:28:25;;;;;;;16.37;6.53;;;6.70;99.90;;;;;;4212461;28;20462;-77
2021/10/12 04:30:27;;;;;;;12.90;7.17;;;6.70;99.90;;;;;;4212397;28;20459;-78
2021/10/12 04:32:29;;;;;;;16.37;6.73;;;6.70;99.90;;;;;;4204808;28;20966;-77
2021/10/12 04:34:31;;;;;;;15.07;7.47;;;6.80;99.90;;;;;;4210461;28;20505;-77
2021/10/12 04:36:34;;;;;;;15.40;7.53;;;6.80;99.90;;;;;;4210292;28;20957;-84
2021/10/12 04:38:35;;;;;;;22.60;8.40;;;6.80;99.90;;;;;;4215492;28;20452;-80
2021/10/12 04:40:39;;;;;;;15.10;7.90;;;6.80;99.90;;;;;;4208529;28;20978;-77
2021/10/12 04:42:41;;;;;;;15.63;7.20;;;6.90;99.90;;;;;;4204209;28;20474;-77
2021/10/12 04:44:43;;;;;;;17.23;8.80;;;6.90;99.90;;;;;;4207246;28;20513;-77
2021/10/12 04:46:45;;;;;;;11.97;6.90;;;7.00;99.90;;;;;;4207705;28;20459;-77
2021/10/12 04:48:47;;;;;;;18.27;7.63;;;7.00;99.90;;;;;;4196462;28;20472;-78
2021/10/12 04:50:48;;;;;;;13.87;7.13;;;7.00;99.90;;;;;;4200205;28;20494;-78
2021/10/12 04:52:51;;;;;;;22.80;8.47;;;7.00;99.90;;;;;;4214318;28;20526;-79
2021/10/12 04:54:53;;;;;;;16.47;7.20;;;7.00;99.90;;;;;;4219561;28;20536;-79
2021/10/12 04:56:55;;;;;;;16.73;6.40;;;7.00;99.90;;;;;;4227791;28;20936;-79
2021/10/12 04:58:57;;;;;;;17.37;6.47;;;7.00;99.90;;;;;;4222022;28;21044;-79
2021/10/12 05:00:58;;;;;;;18.13;6.37;;;7.00;99.90;;;;;;4229715;28;20474;-79
2021/10/12 05:03:00;;;;;;;9.97;5.20;;;7.00;99.90;;;;;;4212339;28;20474;-77
2021/10/12 05:05:02;;;;;;;10.23;5.37;;;7.00;99.90;;;;;;4206293;28;21028;-78
2021/10/12 05:07:04;;;;;;;11.30;4.93;;;7.00;99.90;;;;;;4204649;28;20519;-79
2021/10/12 05:09:07;;;;;;;12.70;5.50;;;7.00;99.90;;;;;;4202316;28;20529;-78
2021/10/12 05:11:08;;;;;;;16.00;5.30;;;7.00;99.90;;;;;;4207273;28;20446;-77
2021/10/12 05:13:10;;;;;;;13.90;5.07;;;7.00;99.90;;;;;;4205599;28;20466;-77
2021/10/12 05:15:19;;;;;;;14.37;5.03;;;7.00;99.90;;;;;;4205005;28;21082;-77
2021/10/12 05:17:25;;;;;;;10.13;4.83;;;7.00;99.90;;;;;;4207020;28;20847;-77
2021/10/12 05:19:27;;;;;;;10.10;4.63;;;7.00;99.90;;;;;;4209365;28;20463;-77
2021/10/12 05:21:30;;;;;;;10.30;4.30;;;7.00;99.90;;;;;;4210160;28;21074;-77
2021/10/12 05:23:32;;;;;;;9.93;4.77;;;7.00;99.90;;;;;;4209957;28;20456;-80
2021/10/12 05:25:35;;;;;;;8.40;4.30;;;7.00;99.90;;;;;;4215350;28;20477;-80
2021/10/12 05:27:37;;;;;;;10.13;4.87;;;7.10;99.90;;;;;;4220992;28;20537;-79
2021/10/12 05:29:39;;;;;;;10.60;4.67;;;7.10;99.90;;;;;;4220437;28;21828;-79
2021/10/12 05:31:41;;;;;;;6.97;4.23;;;7.10;99.90;;;;;;4220250;28;20509;-80
2021/10/12 05:33:45;;;;;;;12.17;4.30;;;7.10;99.90;;;;;;4204145;28;20470;-81
2021/10/12 05:35:49;;;;;;;9.23;4.20;;;7.10;99.90;;;;;;4220128;28;20915;-80
2021/10/12 05:37:51;;;;;;;7.73;4.10;;;7.20;99.90;;;;;;4219065;28;20527;-80
2021/10/12 05:39:52;;;;;;;10.00;4.47;;;7.20;99.90;;;;;;4220037;28;20515;-81
2021/10/12 05:41:56;;;;;;;12.77;4.73;;;7.20;99.90;;;;;;4210993;28;20484;-81
2021/10/12 05:43:57;;;;;;;9.40;4.40;;;7.20;99.90;;;;;;4200300;28;20524;-80
2021/10/12 05:45:59;;;;;;;7.93;4.20;;;7.20;99.90;;;;;;4231563;28;20493;-79
2021/10/12 05:48:01;;;;;;;9.83;4.90;;;7.30;99.90;;;;;;4221810;28;20456;-79
2021/10/12 05:50:03;;;;;;;8.27;4.33;;;7.30;99.90;;;;;;4198979;28;20481;-79
2021/10/12 05:52:05;;;;;;;10.60;5.00;;;7.30;99.90;;;;;;4203765;28;20478;-78
2021/10/12 05:54:07;;;;;;;11.37;5.20;;;7.30;99.90;;;;;;4196909;28;20454;-78
2021/10/12 05:56:12;;;;;;;12.13;4.90;;;7.30;99.90;;;;;;4209609;28;20503;-79
2021/10/12 05:58:25;;;;;;;9.73;4.93;;;7.30;99.90;;;;;;4212300;28;20472;-79
2021/10/12 06:00:27;;;;;;;12.97;5.07;;;7.40;99.90;;;;;;4214496;28;20468;-79
2021/10/12 06:02:29;;;;;;;9.73;5.03;;;7.40;99.90;;;;;;4220306;28;20533;-79
2021/10/12 06:04:30;;;;;;;12.37;4.90;;;7.40;99.90;;;;;;4220737;27;20534;-83
2021/10/12 06:06:32;;;;;;;12.47;5.20;;;7.40;99.90;;;;;;4216519;28;20469;-80
2021/10/12 06:08:34;;;;;;;13.07;5.40;;;7.40;99.90;;;;;;4202183;28;21024;-79
2021/10/12 06:10:37;;;;;;;11.60;4.83;;;7.40;99.90;;;;;;4209600;28;20959;-80
2021/10/12 06:12:39;;;;;;;10.73;5.20;;;7.50;99.90;;;;;;4221616;28;20464;-79
2021/10/12 06:14:43;;;;;;;15.57;5.37;;;7.50;99.90;;;;;;4220093;28;20468;-79
2021/10/12 06:16:45;;;;;;;14.87;5.57;;;7.50;99.90;;;;;;4207287;28;21240;-78
2021/10/12 06:18:47;;;;;;;8.23;5.27;;;7.50;99.90;;;;;;4194179;28;20511;-78
2021/10/12 06:20:49;;;;;;;12.90;5.53;;;7.50;99.90;;;;;;4210376;28;20466;-80
2021/10/12 06:22:50;;;;;;;9.43;4.80;;;7.60;99.90;;;;;;4210945;28;20491;-79
2021/10/12 06:24:52;;;;;;;9.57;5.00;;;7.60;99.90;;;;;;4210249;28;20472;-79
2021/10/12 06:26:54;;;;;;;9.27;4.73;;;7.60;99.90;;;;;;4200506;28;20532;-77
2021/10/12 06:28:55;;;;;;;14.30;4.83;;;7.70;99.90;;;;;;4210687;28;20500;-78
2021/10/12 06:30:59;;;;;;;11.30;5.00;;;7.70;99.90;;;;;;4209383;28;20477;-77
2021/10/12 06:33:01;;;;;;;10.27;5.23;;;7.70;99.90;;;;;;4201429;28;20454;-77
2021/10/12 06:35:03;;;;;;;11.90;5.40;;;7.70;99.90;;;;;;4199172;28;20574;-78
2021/10/12 06:37:05;;;;;;;9.03;4.43;;;7.80;99.90;;;;;;4205315;28;20504;-79
2021/10/12 06:39:06;;;;;;;12.00;4.67;;;7.80;99.90;;;;;;4211249;28;20454;-79
2021/10/12 06:41:10;;;;;;;8.10;3.90;;;7.90;99.90;;;;;;4212359;28;20577;-79
2021/10/12 06:43:11;;;;;;;8.13;4.37;;;7.90;99.90;;;;;;4205669;28;20488;-79
2021/10/12 06:45:16;;;;;;;9.03;4.43;;;7.90;99.90;;;;;;4200866;28;20485;-77
2021/10/12 06:47:19;;;;;;;9.67;4.27;;;8.00;99.90;;;;;;4195074;28;20980;-79
2021/10/12 06:49:21;;;;;;;6.80;3.83;;;8.00;99.90;;;;;;4194552;28;20481;-78
2021/10/12 06:51:23;;;;;;;9.43;4.17;;;8.00;99.90;;;;;;4215638;28;20469;-81
2021/10/12 06:53:25;;;;;;;6.00;3.60;;;8.10;99.90;;;;;;4216628;28;20491;-79
2021/10/12 06:55:27;;;;;;;10.17;4.63;;;8.10;99.90;;;;;;4224587;28;20503;-79
2021/10/12 06:57:29;;;;;;;9.23;3.97;;;8.10;99.90;;;;;;4222312;28;20975;-79
2021/10/12 06:59:30;;;;;;;14.50;5.10;;;8.10;99.90;;;;;;4211496;28;20586;-79
2021/10/12 07:01:32;;;;;;;9.97;4.27;;;8.10;99.90;;;;;;4222020;28;20465;-79
2021/10/12 07:03:35;;;;;;;10.87;4.37;;;8.10;99.90;;;;;;4218716;28;20704;-79
2021/10/12 07:05:37;;;;;;;11.67;4.90;;;8.10;99.90;;;;;;4216033;28;20482;-79
2021/10/12 07:07:39;;;;;;;11.17;4.50;;;8.10;99.90;;;;;;4219570;28;20603;-79
2021/10/12 07:09:41;;;;;;;7.63;4.20;;;8.20;99.90;;;;;;4217668;28;20455;-80
2021/10/12 07:11:42;;;;;;;6.13;4.10;;;8.20;99.90;;;;;;4216628;28;20568;-80
2021/10/12 07:13:46;;;;;;;11.13;4.93;;;8.20;99.90;;;;;;4218278;28;20518;-79
2021/10/12 07:15:48;;;;;;;9.37;4.30;;;8.20;99.90;;;;;;4216610;28;20817;-80
2021/10/12 07:17:49;;;;;;;8.73;4.70;;;8.30;99.90;;;;;;4194230;28;20502;-79
2021/10/12 07:19:53;;;;;;;7.80;3.93;;;8.20;99.90;;;;;;4207701;28;20495;-79
2021/10/12 07:21:55;;;;;;;8.10;4.17;;;8.20;99.90;;;;;;4209987;28;20489;-79
2021/10/12 07:23:56;;;;;;;9.50;4.50;;;8.30;99.90;;;;;;4209638;28;20520;-79
2021/10/12 07:25:58;;;;;;;14.03;4.40;;;8.30;99.90;;;;;;4209179;28;20547;-79
2021/10/12 07:28:00;;;;;;;7.87;4.30;;;8.40;99.90;;;;;;4210635;28;20458;-79
2021/10/12 07:30:02;;;;;;;7.80;4.07;;;8.40;99.90;;;;;;4209023;28;20963;-80
2021/10/12 07:32:04;;;;;;;11.63;4.60;;;8.40;99.90;;;;;;4208684;28;20515;-79
2021/10/12 07:34:06;;;;;;;11.20;4.67;;;8.40;99.90;;;;;;4202466;28;20479;-80
2021/10/12 07:36:09;;;;;;;11.47;4.60;;;8.40;99.90;;;;;;4210210;28;20499;-77
2021/10/12 07:38:13;;;;;;;8.90;4.00;;;8.40;99.90;;;;;;4209614;28;20515;-81
2021/10/12 07:40:14;;;;;;;6.87;4.40;;;8.40;99.90;;;;;;4217457;28;20478;-79
2021/10/12 07:42:16;;;;;;;8.87;4.07;;;8.40;99.90;;;;;;4210264;28;20490;-80
2021/10/12 07:44:18;;;;;;;10.43;4.30;;;8.40;99.90;;;;;;4191756;28;20972;-78
2021/10/12 07:46:19;;;;;;;7.93;4.40;;;8.40;99.90;;;;;;4205244;28;20471;-78
2021/10/12 07:48:22;;;;;;;10.03;4.37;;;8.40;99.90;;;;;;4205573;28;21411;-79
2021/10/12 07:50:24;;;;;;;8.47;4.50;;;8.40;99.90;;;;;;4201421;28;20516;-79
2021/10/12 07:52:29;;;;;;;6.20;3.97;;;8.40;99.90;;;;;;4209860;28;21020;-79
2021/10/12 07:54:39;;;;;;;12.13;4.93;;;8.40;99.90;;;;;;4208825;28;20838;-79
2021/10/12 07:56:40;;;;;;;7.07;4.10;;;8.40;99.90;;;;;;4207715;28;20509;-78
2021/10/12 07:58:43;;;;;;;6.53;4.30;;;8.40;99.90;;;;;;4207389;28;20474;-78
2021/10/12 08:00:45;;;;;;;9.27;4.83;;;8.40;99.90;;;;;;4212222;28;20512;-78
2021/10/12 08:02:46;;;;;;;11.10;4.53;;;8.50;99.90;;;;;;4226056;28;20641;-78
2021/10/12 08:04:48;;;;;;;10.53;5.27;;;8.50;99.90;;;;;;4222854;28;20542;-78
2021/10/12 08:06:50;;;;;;;11.80;4.40;;;8.50;99.90;;;;;;4209147;28;20449;-80
2021/10/12 08:08:53;;;;;;;9.53;4.70;;;8.50;99.90;;;;;;4212573;28;20605;-78
2021/10/12 08:10:54;;;;;;;11.63;4.43;;;8.60;99.90;;;;;;4214886;28;20496;-80
2021/10/12 08:12:58;;;;;;;8.97;4.30;;;8.60;99.90;;;;;;4196050;28;20543;-79
2021/10/12 08:15:00;;;;;;;8.30;4.53;;;8.60;99.90;;;;;;4213371;28;20487;-78
2021/10/12 08:17:02;;;;;;;7.73;4.80;;;8.70;99.90;;;;;;4208506;28;20492;-79
2021/10/12 08:19:07;;;;;;;14.30;5.00;;;8.70;99.90;;;;;;4208033;28;20840;-77
2021/10/12 08:21:08;;;;;;;8.30;4.30;;;8.70;99.90;;;;;;4208061;28;20465;-79
2021/10/12 08:23:10;;;;;;;6.63;4.07;;;8.70;99.90;;;;;;4207931;28;20552;-77
2021/10/12 08:25:13;;;;;;;7.67;3.90;;;8.70;99.90;;;;;;4205441;28;20999;-78
2021/10/12 08:27:15;;;;;;;8.87;4.67;;;8.80;99.90;;;;;;4207752;28;20458;-77
2021/10/12 08:29:17;;;;;;;8.63;4.40;;;8.70;99.90;;;;;;4213973;28;20888;-79
2021/10/12 08:31:19;;;;;;;8.30;3.90;;;8.80;99.90;;;;;;4211692;28;20550;-79
2021/10/12 08:33:21;;;;;;;8.00;4.10;;;8.80;99.90;;;;;;4204511;28;20468;-79
2021/10/12 08:35:22;;;;;;;9.80;4.30;;;8.80;99.90;;;;;;4207896;28;20547;-78
2021/10/12 08:37:24;;;;;;;11.00;4.30;;;8.80;99.90;;;;;;4208676;28;20995;-78
2021/10/12 08:39:30;;;;;;;8.83;4.20;;;8.80;99.90;;;;;;4207541;28;20459;-77
2021/10/12 08:41:38;;;;;;;8.63;3.80;;;8.80;99.90;;;;;;4205888;28;21028;-77
2021/10/12 08:43:40;;;;;;;7.20;3.93;;;8.80;99.90;;;;;;4206760;28;20601;-77
2021/10/12 08:45:44;;;;;;;7.20;3.70;;;8.90;99.90;;;;;;4208382;28;21038;-78
2021/10/12 08:47:45;;;;;;;6.97;3.80;;;8.90;99.90;;;;;;4208919;28;20844;-79
2021/10/12 08:49:47;;;;;;;9.30;3.97;;;8.90;99.90;;;;;;4203571;28;21332;-78
2021/10/12 08:51:49;;;;;;;9.37;4.20;;;8.90;99.90;;;;;;4220325;28;20474;-79
2021/10/12 08:53:51;;;;;;;18.77;5.53;;;8.90;99.90;;;;;;4219830;28;20501;-79
2021/10/12 08:55:53;;;;;;;20.83;6.00;;;8.90;99.90;;;;;;4219254;28;20514;-78
2021/10/12 08:57:56;;;;;;;21.37;6.20;;;8.90;99.90;;;;;;4210923;28;20472;-79
2021/10/12 09:00:01;;;;;;;20.70;6.77;;;8.90;99.90;;;;;;4208101;28;20455;-79
2021/10/12 09:02:06;;;;;;;20.00;6.03;;;8.90;99.90;;;;;;4215255;28;21107;-79
2021/10/12 09:04:08;;;;;;;25.90;6.83;;;9.00;99.90;;;;;;4210850;28;20920;-79
2021/10/12 09:06:10;;;;;;;20.87;5.87;;;9.00;99.90;;;;;;4219743;28;20483;-79
2021/10/12 09:08:11;;;;;;;14.30;4.80;;;9.00;99.90;;;;;;4222584;28;20497;-78
2021/10/12 09:10:20;;;;;;;14.67;4.87;;;9.10;99.90;;;;;;4216680;28;20567;-78
2021/10/12 09:12:43;;;;;;;11.83;5.03;;;9.10;99.90;;;;;;4214756;28;20530;-79
2021/10/12 09:14:57;;;;;;;9.57;4.17;;;9.10;99.90;;;;;;4207959;28;20474;-78
2021/10/12 09:17:06;;;;;;;8.27;3.70;;;9.20;99.90;;;;;;4195198;28;20451;-78
2021/10/12 09:19:09;;;;;;;8.40;4.10;;;9.20;99.90;;;;;;4195038;28;20508;-79
2021/10/12 09:21:14;;;;;;;9.47;3.93;;;9.20;99.90;;;;;;4206716;28;20541;-79
2021/10/12 09:23:16;;;;;;;9.07;4.10;;;9.20;99.90;;;;;;4212171;27;20495;-79
2021/10/12 09:25:17;;;;;;;9.50;4.37;;;9.20;99.90;;;;;;4210503;28;20486;-79
2021/10/12 09:27:22;;;;;;;11.90;4.30;;;9.20;99.90;;;;;;4220739;28;20530;-79
2021/10/12 09:29:28;;;;;;;7.67;4.33;;;9.20;99.90;;;;;;4204113;28;20955;-79
2021/10/12 09:31:33;;;;;;;9.03;4.43;;;9.20;99.90;;;;;;4218955;28;20481;-79
2021/10/12 09:33:46;;;;;;;8.80;4.50;;;9.20;99.90;;;;;;4213743;28;20467;-79
2021/10/12 09:35:48;;;;;;;8.07;4.57;;;9.20;99.90;;;;;;4211349;28;21038;-78
2021/10/12 09:38:01;;;;;;;8.10;4.60;;;9.20;99.90;;;;;;4210167;28;20532;-79
2021/10/12 09:40:19;;;;;;;9.97;4.17;;;9.20;99.90;;;;;;4208034;28;20462;-79
2021/10/12 09:42:21;;;;;;;9.97;4.87;;;9.20;99.90;;;;;;4206089;28;20485;-79
2021/10/12 09:44:23;;;;;;;7.27;4.83;;;9.10;99.90;;;;;;4211940;28;20455;-79
2021/10/12 09:46:30;;;;;;;10.70;5.33;;;9.10;99.90;;;;;;4218247;28;20482;-79
2021/10/12 09:48:35;;;;;;;11.93;5.67;;;9.10;99.90;;;;;;4201854;28;20559;-78
2021/10/12 09:50:36;;;;;;;9.20;5.60;;;9.10;99.90;;;;;;4209791;28;20465;-79
2021/10/12 09:52:42;;;;;;;10.87;6.07;;;9.20;99.90;;;;;;4210365;28;20509;-79
2021/10/12 09:54:48;;;;;;;7.60;5.27;;;9.20;99.90;;;;;;4208189;28;21105;-79
2021/10/12 09:56:51;;;;;;;14.17;5.70;;;9.30;99.90;;;;;;4216571;28;20964;-79
2021/10/12 09:58:52;;;;;;;13.63;6.10;;;9.30;99.90;;;;;;4215396;28;20935;-79
2021/10/12 10:00:54;;;;;;;10.37;5.80;;;9.30;99.90;;;;;;4218258;28;20462;-79
2021/10/12 10:02:57;;;;;;;11.13;5.53;;;9.30;99.90;;;;;;4209464;28;20528;-79
2021/10/12 10:05:01;;;;;;;13.10;6.07;;;9.30;99.90;;;;;;4216376;28;20497;-79
2021/10/12 10:07:05;;;;;;;11.20;5.67;;;9.30;99.90;;;;;;4215944;28;20555;-79
2021/10/12 10:09:09;;;;;;;11.40;5.47;;;9.30;99.90;;;;;;4211204;28;20459;-79
2021/10/12 10:11:11;;;;;;;12.10;5.50;;;9.30;99.90;;;;;;4215786;28;20451;-79
2021/10/12 10:13:15;;;;;;;11.90;6.07;;;9.40;99.90;;;;;;4217869;28;20451;-79
2021/10/12 10:15:17;;;;;;;9.47;5.23;;;9.40;99.90;;;;;;4221791;28;20486;-80
2021/10/12 10:17:21;;;;;;;9.47;5.60;;;9.40;99.90;;;;;;4223506;28;21103;-79
2021/10/12 10:19:25;;;;;;;9.73;4.30;;;9.40;99.90;;;;;;4213892;28;20481;-79
2021/10/12 10:21:28;;;;;;;9.13;4.70;;;9.50;99.90;;;;;;4206785;28;20825;-79
2021/10/12 10:23:54;;;;;;;8.07;4.47;;;9.50;99.90;;;;;;4210602;28;20888;-80
2021/10/12 10:25:55;;;;;;;8.97;3.97;;;9.50;99.90;;;;;;4213746;28;20490;-80
2021/10/12 10:28:18;;;;;;;7.67;3.80;;;9.40;99.90;;;;;;4210068;28;20812;-79
2021/10/12 10:30:22;;;;;;;8.87;3.90;;;9.40;99.90;;;;;;4207334;28;20979;-79
2021/10/12 10:32:24;;;;;;;6.40;3.63;;;9.40;99.90;;;;;;4206395;28;20516;-79
2021/10/12 10:34:40;;;;;;;7.63;3.40;;;9.40;99.90;;;;;;4202978;28;20470;-80
2021/10/12 10:36:43;;;;;;;6.33;3.93;;;9.30;99.90;;;;;;4210900;28;20466;-79
2021/10/12 10:38:46;;;;;;;10.57;4.10;;;9.30;99.90;;;;;;4210153;28;20451;-81
2021/10/12 10:40:49;;;;;;;9.83;4.17;;;9.40;99.90;;;;;;4207374;28;21022;-80
2021/10/12 10:49:05;;;;;;;6.90;3.83;;;9.40;99.90;;;;;;4127959;28;20491;-80
2021/10/12 10:51:21;;;;;;;7.87;4.20;;;9.40;99.90;;;;;;4148839;28;20838;-81